sensor_id;sensor_type;location;lat;lon;timestamp;pressure;altitude;pressure_sealevel;temperature;humidity
76753;BME280;65687;51.308;16.916;2023-07-09T00:03:02;100065.94;;;17.96;54.64
76753;BME280;65687;51.308;16.916;2023-07-09T00:08:04;100060.85;;;17.93;53.83
76753;BME280;65687;51.308;16.916;2023-07-09T00:13:05;100061.94;;;17.90;53.40
76753;BME280;65687;51.308;16.916;2023-07-09T00:18:08;100062.31;;;17.87;53.77
76753;BME280;65687;51.308;16.916;2023-07-09T00:23:10;100058.77;;;17.79;54.48
76753;BME280;65687;51.308;16.916;2023-07-09T00:28:16;100055.24;;;17.76;54.05
76753;BME280;65687;51.308;16.916;2023-07-09T00:33:18;100050.29;;;17.77;54.12
76753;BME280;65687;51.308;16.916;2023-07-09T00:38:22;100041.15;;;17.75;53.98
76753;BME280;65687;51.308;16.916;2023-07-09T00:43:23;100040.77;;;17.73;54.10
76753;BME280;65687;51.308;16.916;2023-07-09T00:48:25;100041.80;;;17.69;54.54
76753;BME280;65687;51.308;16.916;2023-07-09T00:53:31;100034.73;;;17.59;54.75
76753;BME280;65687;51.308;16.916;2023-07-09T00:58:33;100031.21;;;17.53;54.78
76753;BME280;65687;51.308;16.916;2023-07-09T01:03:42;100028.16;;;17.49;54.95
76753;BME280;65687;51.308;16.916;2023-07-09T01:08:46;100023.57;;;17.50;54.86
76753;BME280;65687;51.308;16.916;2023-07-09T01:13:56;100028.74;;;17.47;55.35
76753;BME280;65687;51.308;16.916;2023-07-09T01:18:58;100034.34;;;17.41;55.83
76753;BME280;65687;51.308;16.916;2023-07-09T01:29:56;100039.44;;;17.37;56.07
76753;BME280;65687;51.308;16.916;2023-07-09T01:35:01;100040.52;;;17.34;57.76
76753;BME280;65687;51.308;16.916;2023-07-09T01:40:07;100036.55;;;17.29;58.55
76753;BME280;65687;51.308;16.916;2023-07-09T01:45:11;100035.64;;;17.27;58.16
76753;BME280;65687;51.308;16.916;2023-07-09T01:50:13;100037.54;;;17.24;59.28
76753;BME280;65687;51.308;16.916;2023-07-09T01:55:17;100037.89;;;17.16;60.18
76753;BME280;65687;51.308;16.916;2023-07-09T02:00:18;100033.37;;;17.10;60.61
76753;BME280;65687;51.308;16.916;2023-07-09T02:05:20;100035.64;;;17.11;60.71
76753;BME280;65687;51.308;16.916;2023-07-09T02:10:22;100034.77;;;17.07;61.13
76753;BME280;65687;51.308;16.916;2023-07-09T02:15:24;100029.92;;;17.01;62.11
76753;BME280;65687;51.308;16.916;2023-07-09T02:20:25;100036.13;;;17.02;60.33
76753;BME280;65687;51.308;16.916;2023-07-09T02:25:27;100042.59;;;16.98;60.38
76753;BME280;65687;51.308;16.916;2023-07-09T02:30:29;100036.02;;;16.88;62.31
76753;BME280;65687;51.308;16.916;2023-07-09T02:35:30;100037.40;;;16.84;61.33
76753;BME280;65687;51.308;16.916;2023-07-09T02:40:32;100048.71;;;16.86;60.28
76753;BME280;65687;51.308;16.916;2023-07-09T02:45:35;100044.95;;;16.78;61.67
76753;BME280;65687;51.308;16.916;2023-07-09T02:50:36;100038.28;;;16.77;61.31
76753;BME280;65687;51.308;16.916;2023-07-09T02:55:38;100045.09;;;16.81;60.91
76753;BME280;65687;51.308;16.916;2023-07-09T03:00:39;100042.00;;;16.76;60.60
76753;BME280;65687;51.308;16.916;2023-07-09T03:05:41;100050.05;;;16.73;61.07
76753;BME280;65687;51.308;16.916;2023-07-09T03:10:42;100050.42;;;16.70;61.30
76753;BME280;65687;51.308;16.916;2023-07-09T03:15:54;100055.17;;;16.66;61.32
76753;BME280;65687;51.308;16.916;2023-07-09T03:20:56;100057.14;;;16.64;61.35
76753;BME280;65687;51.308;16.916;2023-07-09T03:25:57;100061.88;;;16.60;60.74
76753;BME280;65687;51.308;16.916;2023-07-09T03:31:00;100076.23;;;16.57;60.68
76753;BME280;65687;51.308;16.916;2023-07-09T03:36:03;100074.88;;;16.46;61.73
76753;BME280;65687;51.308;16.916;2023-07-09T03:41:05;100055.40;;;16.30;62.38
76753;BME280;65687;51.308;16.916;2023-07-09T03:46:07;100070.85;;;16.32;62.65
76753;BME280;65687;51.308;16.916;2023-07-09T03:51:09;100076.48;;;16.28;63.26
76753;BME280;65687;51.308;16.916;2023-07-09T03:56:10;100078.52;;;16.24;63.12
76753;BME280;65687;51.308;16.916;2023-07-09T04:01:12;100071.05;;;16.22;63.34
76753;BME280;65687;51.308;16.916;2023-07-09T04:06:14;100074.89;;;16.24;63.35
76753;BME280;65687;51.308;16.916;2023-07-09T04:11:15;100082.15;;;16.26;63.21
76753;BME280;65687;51.308;16.916;2023-07-09T04:16:17;100085.98;;;16.24;63.57
76753;BME280;65687;51.308;16.916;2023-07-09T04:21:18;100078.40;;;16.19;65.35
76753;BME280;65687;51.308;16.916;2023-07-09T04:26:20;100077.77;;;16.20;65.42
76753;BME280;65687;51.308;16.916;2023-07-09T04:31:21;100072.85;;;16.24;65.40
76753;BME280;65687;51.308;16.916;2023-07-09T04:36:23;100079.55;;;16.28;65.44
76753;BME280;65687;51.308;16.916;2023-07-09T04:41:25;100087.45;;;16.34;65.74
76753;BME280;65687;51.308;16.916;2023-07-09T04:46:26;100084.89;;;16.34;66.88
76753;BME280;65687;51.308;16.916;2023-07-09T04:51:28;100090.33;;;16.37;66.44
76753;BME280;65687;51.308;16.916;2023-07-09T04:56:29;100084.35;;;16.37;67.33
76753;BME280;65687;51.308;16.916;2023-07-09T05:01:31;100094.53;;;16.43;67.17
76753;BME280;65687;51.308;16.916;2023-07-09T05:06:34;100095.70;;;16.50;68.18
76753;BME280;65687;51.308;16.916;2023-07-09T05:11:36;100097.06;;;16.53;68.69
76753;BME280;65687;51.308;16.916;2023-07-09T05:16:38;100099.70;;;16.59;68.48
76753;BME280;65687;51.308;16.916;2023-07-09T05:21:39;100096.42;;;16.65;68.47
76753;BME280;65687;51.308;16.916;2023-07-09T05:26:41;100104.88;;;16.75;69.33
76753;BME280;65687;51.308;16.916;2023-07-09T05:31:42;100107.02;;;16.89;69.62
76753;BME280;65687;51.308;16.916;2023-07-09T05:36:44;100116.31;;;17.02;70.17
76753;BME280;65687;51.308;16.916;2023-07-09T05:41:46;100118.64;;;17.12;69.57
76753;BME280;65687;51.308;16.916;2023-07-09T05:46:47;100116.92;;;17.20;69.67
76753;BME280;65687;51.308;16.916;2023-07-09T05:51:49;100116.84;;;17.30;70.80
76753;BME280;65687;51.308;16.916;2023-07-09T05:56:50;100113.06;;;17.46;71.01
76753;BME280;65687;51.308;16.916;2023-07-09T06:01:52;100114.34;;;17.60;69.58
76753;BME280;65687;51.308;16.916;2023-07-09T06:06:53;100117.30;;;17.73;69.27
76753;BME280;65687;51.308;16.916;2023-07-09T06:11:55;100120.84;;;17.84;69.30
76753;BME280;65687;51.308;16.916;2023-07-09T06:16:57;100115.77;;;18.03;68.99
76753;BME280;65687;51.308;16.916;2023-07-09T06:21:59;100120.51;;;18.19;68.69
76753;BME280;65687;51.308;16.916;2023-07-09T06:27:00;100120.48;;;18.36;69.13
76753;BME280;65687;51.308;16.916;2023-07-09T06:32:03;100126.23;;;18.52;68.77
76753;BME280;65687;51.308;16.916;2023-07-09T06:37:04;100126.63;;;18.66;68.61
76753;BME280;65687;51.308;16.916;2023-07-09T06:42:06;100123.96;;;18.78;68.21
76753;BME280;65687;51.308;16.916;2023-07-09T06:47:08;100128.10;;;18.93;68.06
76753;BME280;65687;51.308;16.916;2023-07-09T06:52:09;100127.41;;;19.07;69.10
76753;BME280;65687;51.308;16.916;2023-07-09T06:57:11;100120.64;;;19.19;69.03
76753;BME280;65687;51.308;16.916;2023-07-09T07:02:12;100118.91;;;19.33;69.10
76753;BME280;65687;51.308;16.916;2023-07-09T07:07:14;100120.30;;;19.53;69.10
76753;BME280;65687;51.308;16.916;2023-07-09T07:12:27;100120.56;;;19.92;68.09
76753;BME280;65687;51.308;16.916;2023-07-09T07:17:32;100130.11;;;20.28;66.83
76753;BME280;65687;51.308;16.916;2023-07-09T07:22:33;100137.45;;;20.66;64.88
76753;BME280;65687;51.308;16.916;2023-07-09T07:27:35;100142.60;;;20.96;63.50
76753;BME280;65687;51.308;16.916;2023-07-09T07:32:38;100135.81;;;21.23;62.57
76753;BME280;65687;51.308;16.916;2023-07-09T07:37:43;100133.98;;;21.38;61.92
76753;BME280;65687;51.308;16.916;2023-07-09T07:42:45;100133.59;;;21.56;62.10
76753;BME280;65687;51.308;16.916;2023-07-09T07:47:47;100127.88;;;21.89;61.43
76753;BME280;65687;51.308;16.916;2023-07-09T07:52:49;100128.99;;;22.20;59.95
76753;BME280;65687;51.308;16.916;2023-07-09T07:57:50;100126.62;;;22.54;57.44
76753;BME280;65687;51.308;16.916;2023-07-09T08:02:52;100126.48;;;22.87;55.71
76753;BME280;65687;51.308;16.916;2023-07-09T08:07:53;100128.52;;;23.49;54.42
76753;BME280;65687;51.308;16.916;2023-07-09T08:12:55;100129.61;;;24.03;53.85
76753;BME280;65687;51.308;16.916;2023-07-09T08:17:58;100132.01;;;24.22;53.33
76753;BME280;65687;51.308;16.916;2023-07-09T08:23:00;100134.70;;;24.55;49.64
76753;BME280;65687;51.308;16.916;2023-07-09T08:28:01;100131.77;;;24.81;48.56
76753;BME280;65687;51.308;16.916;2023-07-09T08:33:03;100133.49;;;25.09;49.11
76753;BME280;65687;51.308;16.916;2023-07-09T08:38:04;100137.33;;;25.44;47.72
76753;BME280;65687;51.308;16.916;2023-07-09T08:48:41;100140.89;;;26.39;43.72
76753;BME280;65687;51.308;16.916;2023-07-09T08:53:59;100134.65;;;26.74;42.16
76753;BME280;65687;51.308;16.916;2023-07-09T08:59:02;100138.55;;;26.93;42.36
76753;BME280;65687;51.308;16.916;2023-07-09T09:04:13;100141.77;;;27.22;40.00
76753;BME280;65687;51.308;16.916;2023-07-09T09:09:31;100138.04;;;27.59;37.77
76753;BME280;65687;51.308;16.916;2023-07-09T09:14:41;100133.88;;;27.81;37.24
76753;BME280;65687;51.308;16.916;2023-07-09T09:19:49;100130.91;;;28.09;36.06
76753;BME280;65687;51.308;16.916;2023-07-09T09:24:58;100135.79;;;28.23;37.66
76753;BME280;65687;51.308;16.916;2023-07-09T09:30:04;100138.55;;;28.26;38.05
76753;BME280;65687;51.308;16.916;2023-07-09T09:35:14;100141.86;;;28.27;37.59
76753;BME280;65687;51.308;16.916;2023-07-09T09:40:18;100147.06;;;28.29;35.64
76753;BME280;65687;51.308;16.916;2023-07-09T09:45:31;100151.30;;;28.63;34.29
76753;BME280;65687;51.308;16.916;2023-07-09T09:50:33;100153.38;;;28.78;36.08
76753;BME280;65687;51.308;16.916;2023-07-09T09:55:35;100147.98;;;28.78;34.99
76753;BME280;65687;51.308;16.916;2023-07-09T10:00:36;100154.15;;;28.99;34.13
76753;BME280;65687;51.308;16.916;2023-07-09T10:05:43;100148.52;;;29.11;33.37
76753;BME280;65687;51.308;16.916;2023-07-09T10:10:46;100149.17;;;29.19;32.07
76753;BME280;65687;51.308;16.916;2023-07-09T10:21:21;100150.77;;;29.14;33.09
76753;BME280;65687;51.308;16.916;2023-07-09T10:26:38;100153.83;;;29.26;33.34
76753;BME280;65687;51.308;16.916;2023-07-09T10:31:53;100156.59;;;29.32;32.35
76753;BME280;65687;51.308;16.916;2023-07-09T10:42:16;100143.77;;;29.22;31.86
76753;BME280;65687;51.308;16.916;2023-07-09T10:47:44;100136.78;;;29.26;33.97
76753;BME280;65687;51.308;16.916;2023-07-09T10:52:47;100140.25;;;29.26;33.19
76753;BME280;65687;51.308;16.916;2023-07-09T11:03:14;100134.30;;;29.06;32.00
76753;BME280;65687;51.308;16.916;2023-07-09T11:08:21;100132.75;;;29.01;31.01
76753;BME280;65687;51.308;16.916;2023-07-09T11:13:37;100128.79;;;28.95;31.17
76753;BME280;65687;51.308;16.916;2023-07-09T11:18:40;100125.28;;;28.99;33.25
76753;BME280;65687;51.308;16.916;2023-07-09T11:23:52;100122.69;;;28.97;31.69
76753;BME280;65687;51.308;16.916;2023-07-09T11:34:08;100118.56;;;28.86;32.68
76753;BME280;65687;51.308;16.916;2023-07-09T11:39:23;100110.97;;;28.78;32.77
76753;BME280;65687;51.308;16.916;2023-07-09T11:44:31;100111.46;;;28.75;33.80
76753;BME280;65687;51.308;16.916;2023-07-09T12:00:45;100100.18;;;28.79;31.04
76753;BME280;65687;51.308;16.916;2023-07-09T12:05:51;100103.13;;;28.80;31.22
76753;BME280;65687;51.308;16.916;2023-07-09T12:10:53;100096.69;;;28.79;32.15
76753;BME280;65687;51.308;16.916;2023-07-09T12:15:55;100095.84;;;28.69;32.17
76753;BME280;65687;51.308;16.916;2023-07-09T12:20:57;100098.27;;;28.68;30.78
76753;BME280;65687;51.308;16.916;2023-07-09T12:26:03;100091.84;;;28.66;30.09
76753;BME280;65687;51.308;16.916;2023-07-09T12:31:12;100086.32;;;28.62;31.97
76753;BME280;65687;51.308;16.916;2023-07-09T12:36:14;100079.23;;;28.55;31.99
76753;BME280;65687;51.308;16.916;2023-07-09T12:41:21;100075.73;;;28.56;31.56
76753;BME280;65687;51.308;16.916;2023-07-09T12:46:24;100072.09;;;28.56;30.96
76753;BME280;65687;51.308;16.916;2023-07-09T12:51:28;100066.66;;;28.62;30.87
76753;BME280;65687;51.308;16.916;2023-07-09T12:56:34;100060.03;;;28.68;29.87
76753;BME280;65687;51.308;16.916;2023-07-09T13:01:36;100057.77;;;28.70;29.94
76753;BME280;65687;51.308;16.916;2023-07-09T13:06:38;100056.90;;;28.71;29.23
76753;BME280;65687;51.308;16.916;2023-07-09T13:11:40;100052.21;;;28.67;28.96
76753;BME280;65687;51.308;16.916;2023-07-09T13:16:41;100053.08;;;28.68;30.47
76753;BME280;65687;51.308;16.916;2023-07-09T13:21:43;100052.55;;;28.68;28.93
76753;BME280;65687;51.308;16.916;2023-07-09T13:26:45;100052.58;;;28.65;28.64
76753;BME280;65687;51.308;16.916;2023-07-09T13:31:48;100047.73;;;28.62;28.69
76753;BME280;65687;51.308;16.916;2023-07-09T13:36:50;100041.64;;;28.60;28.51
76753;BME280;65687;51.308;16.916;2023-07-09T13:41:53;100045.83;;;28.63;28.77
76753;BME280;65687;51.308;16.916;2023-07-09T13:46:57;100042.17;;;28.62;28.90
76753;BME280;65687;51.308;16.916;2023-07-09T13:51:59;100042.84;;;28.65;27.97
76753;BME280;65687;51.308;16.916;2023-07-09T13:57:02;100036.73;;;28.67;27.73
76753;BME280;65687;51.308;16.916;2023-07-09T14:07:32;100028.61;;;28.62;27.38
76753;BME280;65687;51.308;16.916;2023-07-09T14:12:35;100023.54;;;28.67;26.69
76753;BME280;65687;51.308;16.916;2023-07-09T14:17:38;100019.34;;;28.72;26.94
76753;BME280;65687;51.308;16.916;2023-07-09T14:22:40;100027.52;;;28.75;25.75
76753;BME280;65687;51.308;16.916;2023-07-09T14:27:44;100026.30;;;28.78;25.23
76753;BME280;65687;51.308;16.916;2023-07-09T14:32:47;100015.86;;;28.76;26.15
76753;BME280;65687;51.308;16.916;2023-07-09T14:37:51;100022.09;;;28.74;26.64
76753;BME280;65687;51.308;16.916;2023-07-09T14:42:54;100018.32;;;28.69;27.11
76753;BME280;65687;51.308;16.916;2023-07-09T14:47:56;100018.86;;;28.63;27.42
76753;BME280;65687;51.308;16.916;2023-07-09T14:52:58;100013.83;;;28.63;27.42
76753;BME280;65687;51.308;16.916;2023-07-09T14:57:59;100015.25;;;28.56;27.78
76753;BME280;65687;51.308;16.916;2023-07-09T15:03:02;100017.70;;;28.55;27.32
76753;BME280;65687;51.308;16.916;2023-07-09T15:08:12;100020.14;;;28.55;26.01
76753;BME280;65687;51.308;16.916;2023-07-09T15:18:20;100008.16;;;28.47;26.88
76753;BME280;65687;51.308;16.916;2023-07-09T15:23:22;100006.48;;;28.37;27.61
76753;BME280;65687;51.308;16.916;2023-07-09T15:28:24;100003.56;;;28.28;27.10
76753;BME280;65687;51.308;16.916;2023-07-09T15:33:26;99992.10;;;28.27;27.17
76753;BME280;65687;51.308;16.916;2023-07-09T15:38:30;99986.06;;;28.19;28.15
76753;BME280;65687;51.308;16.916;2023-07-09T15:43:32;99983.81;;;28.09;28.08
76753;BME280;65687;51.308;16.916;2023-07-09T15:48:35;99984.70;;;28.03;29.10
76753;BME280;65687;51.308;16.916;2023-07-09T15:53:38;99981.77;;;27.98;28.11
76753;BME280;65687;51.308;16.916;2023-07-09T15:58:42;99977.45;;;27.91;29.40
76753;BME280;65687;51.308;16.916;2023-07-09T16:03:50;99979.21;;;27.81;29.79
76753;BME280;65687;51.308;16.916;2023-07-09T16:08:52;99978.21;;;27.65;32.28
76753;BME280;65687;51.308;16.916;2023-07-09T16:13:53;99978.05;;;27.43;32.43
76753;BME280;65687;51.308;16.916;2023-07-09T16:18:55;99974.08;;;27.24;34.00
76753;BME280;65687;51.308;16.916;2023-07-09T16:23:59;99965.23;;;27.06;33.46
76753;BME280;65687;51.308;16.916;2023-07-09T16:29:08;99963.33;;;27.01;33.72
76753;BME280;65687;51.308;16.916;2023-07-09T16:34:14;99960.87;;;26.91;35.26
76753;BME280;65687;51.308;16.916;2023-07-09T16:39:23;99961.02;;;26.81;34.81
76753;BME280;65687;51.308;16.916;2023-07-09T16:44:25;99960.33;;;26.83;34.26
76753;BME280;65687;51.308;16.916;2023-07-09T16:54:29;99966.52;;;26.54;38.38
76753;BME280;65687;51.308;16.916;2023-07-09T16:59:31;99960.23;;;26.32;39.26
76753;BME280;65687;51.308;16.916;2023-07-09T17:04:32;99957.52;;;26.14;40.59
76753;BME280;65687;51.308;16.916;2023-07-09T17:09:34;99954.83;;;25.92;41.60
76753;BME280;65687;51.308;16.916;2023-07-09T17:14:37;99953.64;;;25.66;43.52
76753;BME280;65687;51.308;16.916;2023-07-09T17:19:39;99956.27;;;25.48;43.52
76753;BME280;65687;51.308;16.916;2023-07-09T17:24:41;99958.45;;;25.37;43.85
76753;BME280;65687;51.308;16.916;2023-07-09T17:29:43;99958.38;;;25.26;44.69
76753;BME280;65687;51.308;16.916;2023-07-09T17:34:45;99957.22;;;25.11;45.26
76753;BME280;65687;51.308;16.916;2023-07-09T17:39:46;99959.33;;;24.97;46.44
76753;BME280;65687;51.308;16.916;2023-07-09T17:44:48;99952.44;;;24.83;46.32
76753;BME280;65687;51.308;16.916;2023-07-09T17:49:49;99950.25;;;24.70;47.36
76753;BME280;65687;51.308;16.916;2023-07-09T17:54:51;99949.02;;;24.52;47.85
76753;BME280;65687;51.308;16.916;2023-07-09T17:59:52;99943.36;;;24.39;48.27
76753;BME280;65687;51.308;16.916;2023-07-09T18:04:54;99940.59;;;24.23;48.69
76753;BME280;65687;51.308;16.916;2023-07-09T18:09:57;99934.88;;;24.09;48.11
76753;BME280;65687;51.308;16.916;2023-07-09T18:14:59;99931.79;;;23.97;47.95
76753;BME280;65687;51.308;16.916;2023-07-09T18:20:02;99929.02;;;23.83;48.06
76753;BME280;65687;51.308;16.916;2023-07-09T18:25:04;99923.64;;;23.67;47.69
76753;BME280;65687;51.308;16.916;2023-07-09T18:30:14;99918.14;;;23.56;46.99
76753;BME280;65687;51.308;16.916;2023-07-09T18:35:26;99924.82;;;23.43;46.65
76753;BME280;65687;51.308;16.916;2023-07-09T18:40:37;99933.31;;;23.34;46.69
76753;BME280;65687;51.308;16.916;2023-07-09T18:45:40;99934.81;;;23.19;46.98
76753;BME280;65687;51.308;16.916;2023-07-09T18:50:42;99941.96;;;23.04;47.18
76753;BME280;65687;51.308;16.916;2023-07-09T18:55:44;99946.07;;;22.92;46.45
76753;BME280;65687;51.308;16.916;2023-07-09T19:00:46;99949.10;;;22.78;46.41
76753;BME280;65687;51.308;16.916;2023-07-09T19:05:48;99960.35;;;22.64;46.20
76753;BME280;65687;51.308;16.916;2023-07-09T19:10:49;99971.49;;;22.52;46.39
76753;BME280;65687;51.308;16.916;2023-07-09T19:15:52;99982.61;;;22.39;46.63
76753;BME280;65687;51.308;16.916;2023-07-09T19:20:55;99996.80;;;22.26;46.66
76753;BME280;65687;51.308;16.916;2023-07-09T19:25:57;100002.08;;;22.15;46.78
76753;BME280;65687;51.308;16.916;2023-07-09T19:30:58;100007.19;;;22.05;46.86
76753;BME280;65687;51.308;16.916;2023-07-09T19:36:00;100013.75;;;21.92;47.22
76753;BME280;65687;51.308;16.916;2023-07-09T19:41:02;100014.47;;;21.78;47.57
76753;BME280;65687;51.308;16.916;2023-07-09T19:46:03;100021.83;;;21.61;47.98
76753;BME280;65687;51.308;16.916;2023-07-09T19:51:05;100017.83;;;21.45;48.15
76753;BME280;65687;51.308;16.916;2023-07-09T19:56:06;100017.04;;;21.34;48.27
76753;BME280;65687;51.308;16.916;2023-07-09T20:01:14;100015.06;;;21.24;48.54
76753;BME280;65687;51.308;16.916;2023-07-09T20:06:15;100018.41;;;21.14;48.64
76753;BME280;65687;51.308;16.916;2023-07-09T20:11:17;100019.23;;;21.06;48.80
76753;BME280;65687;51.308;16.916;2023-07-09T20:16:24;100019.73;;;20.99;48.85
76753;BME280;65687;51.308;16.916;2023-07-09T20:21:27;100012.89;;;20.94;49.08
76753;BME280;65687;51.308;16.916;2023-07-09T20:26:28;100013.95;;;20.88;49.57
76753;BME280;65687;51.308;16.916;2023-07-09T20:31:30;100005.48;;;20.80;50.22
76753;BME280;65687;51.308;16.916;2023-07-09T20:36:32;100006.52;;;20.73;50.15
76753;BME280;65687;51.308;16.916;2023-07-09T20:41:34;100015.10;;;20.67;50.47
76753;BME280;65687;51.308;16.916;2023-07-09T20:46:35;100021.05;;;20.59;50.73
76753;BME280;65687;51.308;16.916;2023-07-09T20:51:37;100021.53;;;20.52;50.99
76753;BME280;65687;51.308;16.916;2023-07-09T20:56:39;100020.30;;;20.45;50.94
76753;BME280;65687;51.308;16.916;2023-07-09T21:01:42;100015.02;;;20.40;50.93
76753;BME280;65687;51.308;16.916;2023-07-09T21:06:45;100012.65;;;20.34;50.89
76753;BME280;65687;51.308;16.916;2023-07-09T21:11:47;100012.84;;;20.30;50.87
76753;BME280;65687;51.308;16.916;2023-07-09T21:16:55;100016.16;;;20.26;50.97
76753;BME280;65687;51.308;16.916;2023-07-09T21:21:58;100014.97;;;20.21;51.20
76753;BME280;65687;51.308;16.916;2023-07-09T21:27:01;100015.17;;;20.17;51.35
76753;BME280;65687;51.308;16.916;2023-07-09T21:32:06;100015.40;;;20.13;51.27
76753;BME280;65687;51.308;16.916;2023-07-09T21:37:17;100014.45;;;20.09;51.59
76753;BME280;65687;51.308;16.916;2023-07-09T21:42:19;100016.23;;;20.07;51.19
76753;BME280;65687;51.308;16.916;2023-07-09T21:47:20;100010.65;;;20.03;51.54
76753;BME280;65687;51.308;16.916;2023-07-09T21:52:22;100012.36;;;19.97;52.11
76753;BME280;65687;51.308;16.916;2023-07-09T21:57:24;100010.48;;;19.91;51.74
76753;BME280;65687;51.308;16.916;2023-07-09T22:02:28;100012.98;;;19.89;51.43
76753;BME280;65687;51.308;16.916;2023-07-09T22:07:30;100012.77;;;19.87;51.42
76753;BME280;65687;51.308;16.916;2023-07-09T22:12:32;100015.44;;;19.85;51.64
76753;BME280;65687;51.308;16.916;2023-07-09T22:17:34;100016.92;;;19.84;51.61
76753;BME280;65687;51.308;16.916;2023-07-09T22:22:35;100017.57;;;19.82;51.39
76753;BME280;65687;51.308;16.916;2023-07-09T22:27:37;100017.55;;;19.81;51.56
76753;BME280;65687;51.308;16.916;2023-07-09T22:32:39;100011.82;;;19.79;51.87
76753;BME280;65687;51.308;16.916;2023-07-09T22:37:43;100007.58;;;19.75;52.19
76753;BME280;65687;51.308;16.916;2023-07-09T22:42:46;100006.27;;;19.71;51.90
76753;BME280;65687;51.308;16.916;2023-07-09T22:47:52;100004.31;;;19.70;52.34
76753;BME280;65687;51.308;16.916;2023-07-09T22:52:55;100004.73;;;19.67;53.09
76753;BME280;65687;51.308;16.916;2023-07-09T22:57:58;100004.33;;;19.58;53.93
76753;BME280;65687;51.308;16.916;2023-07-09T23:03:08;100000.98;;;19.56;53.92
76753;BME280;65687;51.308;16.916;2023-07-09T23:08:18;100002.24;;;19.47;55.01
76753;BME280;65687;51.308;16.916;2023-07-09T23:13:22;99998.80;;;19.42;55.02
76753;BME280;65687;51.308;16.916;2023-07-09T23:18:26;99999.70;;;19.38;55.48
76753;BME280;65687;51.308;16.916;2023-07-09T23:23:29;99990.55;;;19.31;56.90
76753;BME280;65687;51.308;16.916;2023-07-09T23:28:31;99993.08;;;19.30;57.42
76753;BME280;65687;51.308;16.916;2023-07-09T23:33:34;99996.02;;;19.36;57.80
76753;BME280;65687;51.308;16.916;2023-07-09T23:38:39;99994.46;;;19.35;58.78
76753;BME280;65687;51.308;16.916;2023-07-09T23:43:40;99995.48;;;19.35;58.24
76753;BME280;65687;51.308;16.916;2023-07-09T23:48:44;99999.61;;;19.35;58.69
76753;BME280;65687;51.308;16.916;2023-07-09T23:53:46;99999.32;;;19.37;56.86
76753;BME280;65687;51.308;16.916;2023-07-09T23:58:48;99996.20;;;19.46;56.08
